To NAV CANADA Home Page Login to a new session Search on AWWS site Feedback and Comments Disclaimer Vers la page française équivalente Tips FAQ What's new on the site To the Forecasts and Observations / NOTAM section To "File a Flight Plan" website Publications and other links Update of the User's profile FIC Telephone Numbers My Weather Data Folder Route Weather Data Regional Weather Data Local Weather Data To the Forecasts and Observations / NOTAM section
Request Generated 07/29/2015 at 11:28:32 UTC . Weather information available at that time is displayed.

METAR/TAF

LLOYDMINSTER/AB    (show WxCam)

METAR CYLL 291100Z AUTO 28010KT 9SM CLR 13/08 A2995 RMK SLP146
DENSITY ALT 2300FT=
METAR CYLL 291000Z AUTO 28010KT 9SM CLR 13/09 A2994 RMK SLP143
DENSITY ALT 2400FT=
METAR CYLL 290900Z AUTO 29010KT 9SM CLR 14/09 A2993 RMK SLP140
DENSITY ALT 2500FT=

TAF CYLL 290538Z 2906/2918 29008KT P6SM FEW200
BECMG 2914/2916 29012KT
RMK FCST BASED ON AUTO OBS. NXT FCST BY 291200Z=
Your time UTC time
Weather data provided by Environment Canada and NAV CANADA